createdAt,value
2017-07-11T00:01:19.415Z,8.03
2017-07-11T00:03:47.495Z,7.20
2017-07-11T00:06:15.584Z,7.80
2017-07-11T00:08:43.667Z,7.83
2017-07-11T00:11:11.772Z,8.03
2017-07-11T00:13:39.851Z,7.73
2017-07-11T00:16:07.920Z,7.67
2017-07-11T00:18:36.016Z,10.63
2017-07-11T00:21:04.091Z,8.17
2017-07-11T00:23:32.180Z,8.40
2017-07-11T00:26:00.261Z,8.20
2017-07-11T00:28:28.340Z,8.47
2017-07-11T00:30:56.413Z,8.90
2017-07-11T00:33:24.504Z,8.90
2017-07-11T00:35:52.590Z,8.17
2017-07-11T00:38:20.671Z,9.10
2017-07-11T00:40:48.752Z,8.37
2017-07-11T00:43:16.846Z,8.93
2017-07-11T00:45:44.924Z,10.50
2017-07-11T00:48:13.007Z,9.33
2017-07-11T00:50:41.093Z,8.80
2017-07-11T00:53:09.175Z,8.80
2017-07-11T00:55:37.262Z,8.67
2017-07-11T00:58:05.340Z,8.73
2017-07-11T01:00:33.421Z,9.40
2017-07-11T01:03:01.499Z,9.07
2017-07-11T01:05:29.574Z,9.27
2017-07-11T01:07:57.656Z,9.00
2017-07-11T01:10:25.761Z,9.30
2017-07-11T01:12:53.832Z,6.53
2017-07-11T01:15:21.926Z,6.60
2017-07-11T01:17:50.012Z,6.70
2017-07-11T01:20:18.089Z,6.93
2017-07-11T01:22:46.186Z,9.30
2017-07-11T01:25:14.278Z,7.97
2017-07-11T01:27:42.360Z,8.00
2017-07-11T01:30:10.431Z,7.30
2017-07-11T01:32:38.512Z,6.90
2017-07-11T01:35:06.595Z,5.63
2017-07-11T01:37:34.689Z,5.70
2017-07-11T01:40:02.768Z,5.30
2017-07-11T01:42:30.852Z,5.10
2017-07-11T01:44:59.174Z,5.00
2017-07-11T01:47:27.253Z,4.37
2017-07-11T01:49:55.345Z,4.70
2017-07-11T01:52:23.416Z,6.30
2017-07-11T01:54:51.507Z,3.80
2017-07-11T01:57:19.584Z,3.77
2017-07-11T01:59:47.666Z,3.60
2017-07-11T02:02:15.741Z,3.67
2017-07-11T02:04:43.898Z,5.03
2017-07-11T02:07:11.982Z,4.97
2017-07-11T02:09:40.069Z,3.67
2017-07-11T02:12:08.146Z,3.90
2017-07-11T02:14:36.224Z,3.73
2017-07-11T02:17:04.301Z,3.83
2017-07-11T02:19:32.383Z,5.00
2017-07-11T02:22:00.572Z,4.53
2017-07-11T02:24:28.708Z,5.00
2017-07-11T02:26:56.970Z,3.90
2017-07-11T02:29:25.056Z,4.77
2017-07-11T02:31:53.320Z,6.87
2017-07-11T02:34:21.395Z,4.00
2017-07-11T02:36:49.488Z,4.20
2017-07-11T02:39:17.559Z,4.93
2017-07-11T02:41:45.644Z,3.60
2017-07-11T02:44:13.720Z,4.07
2017-07-11T02:46:41.809Z,3.87
2017-07-11T02:49:09.880Z,4.03
2017-07-11T02:51:37.967Z,4.13
2017-07-11T02:54:06.051Z,4.80
2017-07-11T02:56:34.127Z,4.17
2017-07-11T02:59:02.200Z,6.33
2017-07-11T03:01:30.280Z,4.13
2017-07-11T03:03:58.394Z,4.17
2017-07-11T03:06:26.471Z,4.50
2017-07-11T03:08:54.565Z,4.70
2017-07-11T03:11:22.632Z,4.53
2017-07-11T03:13:50.723Z,5.30
2017-07-11T03:16:18.805Z,6.07
2017-07-11T03:18:46.883Z,4.27
2017-07-11T03:21:14.964Z,5.47
2017-07-11T03:23:43.049Z,4.93
2017-07-11T03:26:11.126Z,4.27
2017-07-11T03:28:39.205Z,4.40
2017-07-11T03:31:07.282Z,4.77
2017-07-11T03:33:35.436Z,4.80
2017-07-11T03:36:03.512Z,6.23
2017-07-11T03:38:31.594Z,3.80
2017-07-11T03:40:59.672Z,4.37
2017-07-11T03:43:27.750Z,6.43
2017-07-11T03:45:56.027Z,4.00
2017-07-11T03:48:24.301Z,3.47
2017-07-11T03:50:52.397Z,4.23
2017-07-11T03:53:20.472Z,3.20
2017-07-11T03:55:48.597Z,3.10
2017-07-11T03:58:16.679Z,5.10
2017-07-11T04:00:44.764Z,3.97
2017-07-11T04:03:12.835Z,4.23
2017-07-11T04:05:40.920Z,3.63
2017-07-11T04:08:09.762Z,4.03
2017-07-11T04:10:37.843Z,3.43
2017-07-11T04:13:05.919Z,4.83
2017-07-11T04:15:34.116Z,4.03
2017-07-11T04:18:02.300Z,4.43
2017-07-11T04:20:30.474Z,3.67
2017-07-11T04:22:58.548Z,6.27
2017-07-11T04:25:26.797Z,2.30
2017-07-11T04:27:54.931Z,5.57
2017-07-11T04:30:23.006Z,3.27
2017-07-11T04:32:51.092Z,3.60
2017-07-11T04:35:19.176Z,3.13
2017-07-11T04:37:47.259Z,3.90
2017-07-11T04:40:15.329Z,8.23
2017-07-11T04:42:43.410Z,2.90
2017-07-11T04:45:11.491Z,2.87
2017-07-11T04:47:39.576Z,3.20
2017-07-11T04:50:07.772Z,2.73
2017-07-11T04:52:35.972Z,2.37
2017-07-11T04:55:04.053Z,4.53
2017-07-11T04:57:32.124Z,3.47
2017-07-11T05:00:00.214Z,6.80
2017-07-11T05:02:28.287Z,2.40
2017-07-11T05:04:56.375Z,2.30
2017-07-11T05:07:24.452Z,2.70
2017-07-11T05:09:52.537Z,2.57
2017-07-11T05:12:20.619Z,4.80
2017-07-11T05:14:48.699Z,2.47
2017-07-11T05:17:16.787Z,2.87
2017-07-11T05:19:44.859Z,3.33
2017-07-11T05:22:12.946Z,2.50
2017-07-11T05:24:41.016Z,3.90
2017-07-11T05:27:09.096Z,3.00
2017-07-11T05:29:37.168Z,2.50
2017-07-11T05:32:05.254Z,2.77
2017-07-11T05:34:33.330Z,2.40
2017-07-11T05:37:01.424Z,7.00
2017-07-11T05:39:29.505Z,3.10
2017-07-11T05:41:57.588Z,3.00
2017-07-11T05:44:25.663Z,3.23
2017-07-11T05:46:53.760Z,3.60
2017-07-11T05:49:21.847Z,3.10
2017-07-11T05:51:49.939Z,5.40
2017-07-11T05:54:18.005Z,3.50
2017-07-11T05:56:46.091Z,2.40
2017-07-11T05:59:14.169Z,4.90
2017-07-11T06:01:42.243Z,3.17
2017-07-11T06:04:10.319Z,3.03
2017-07-11T06:06:38.396Z,3.47
2017-07-11T06:09:06.479Z,3.30
2017-07-11T06:11:34.561Z,2.70
2017-07-11T06:14:02.748Z,3.40
2017-07-11T06:16:30.821Z,3.30
2017-07-11T06:18:58.902Z,2.77
2017-07-11T06:21:26.980Z,3.93
2017-07-11T06:23:55.072Z,4.20
2017-07-11T06:26:23.153Z,2.90
2017-07-11T06:28:51.229Z,3.47
2017-07-11T06:31:19.309Z,3.30
2017-07-11T06:33:47.392Z,3.33
2017-07-11T06:36:15.472Z,3.23
2017-07-11T06:38:43.541Z,2.57
2017-07-11T06:41:11.623Z,2.97
2017-07-11T06:43:39.812Z,3.80
2017-07-11T06:46:08.111Z,2.87
2017-07-11T06:48:36.175Z,2.70
2017-07-11T06:51:04.265Z,8.47
2017-07-11T06:53:32.331Z,3.30
2017-07-11T06:56:00.423Z,2.90
2017-07-11T06:58:28.501Z,2.83
2017-07-11T07:00:56.585Z,3.53
2017-07-11T07:03:24.673Z,2.40
2017-07-11T07:05:52.744Z,2.93
2017-07-11T07:08:20.828Z,4.47
2017-07-11T07:10:48.909Z,2.90
2017-07-11T07:13:16.990Z,2.40
2017-07-11T07:15:45.067Z,2.73
2017-07-11T07:18:13.143Z,2.53
2017-07-11T07:20:41.231Z,1.97
2017-07-11T07:23:09.314Z,1.80
2017-07-11T07:25:37.383Z,2.70
2017-07-11T07:28:05.464Z,1.90
2017-07-11T07:30:33.544Z,2.10
2017-07-11T07:33:01.622Z,3.10
2017-07-11T07:35:29.700Z,3.30
2017-07-11T07:37:57.772Z,4.00
2017-07-11T07:40:26.648Z,2.47
2017-07-11T07:42:54.727Z,1.97
2017-07-11T07:45:22.824Z,2.20
2017-07-11T07:47:50.892Z,2.20
2017-07-11T07:50:18.979Z,3.00
2017-07-11T07:52:47.048Z,1.57
2017-07-11T07:55:15.132Z,1.67
2017-07-11T07:57:43.203Z,2.77
2017-07-11T08:00:11.285Z,2.17
2017-07-11T08:02:39.362Z,2.47
2017-07-11T08:05:07.453Z,1.90
2017-07-11T08:07:35.530Z,1.67
2017-07-11T08:10:03.606Z,2.17
2017-07-11T08:12:31.692Z,2.10
2017-07-11T08:14:59.762Z,2.40
2017-07-11T08:17:27.856Z,2.27
2017-07-11T08:19:55.933Z,1.97
2017-07-11T08:22:24.013Z,2.50
2017-07-11T08:24:52.089Z,3.20
2017-07-11T08:27:20.181Z,2.70
2017-07-11T08:29:48.252Z,2.80
2017-07-11T08:32:16.357Z,2.70
2017-07-11T08:34:44.437Z,3.03
2017-07-11T08:37:12.512Z,3.10
2017-07-11T08:39:40.593Z,2.73
2017-07-11T08:42:08.674Z,3.90
2017-07-11T08:44:36.752Z,3.27
2017-07-11T08:47:04.835Z,3.07
2017-07-11T08:49:32.923Z,3.37
2017-07-11T08:52:01.202Z,3.00
2017-07-11T08:54:29.288Z,2.70
2017-07-11T08:56:57.359Z,2.80
2017-07-11T08:59:25.454Z,2.37
2017-07-11T09:01:53.520Z,3.43
2017-07-11T09:04:21.610Z,2.40
2017-07-11T09:06:49.687Z,2.40
2017-07-11T09:09:17.770Z,1.97
2017-07-11T09:11:45.860Z,2.00
2017-07-11T09:14:13.927Z,2.00
2017-07-11T09:16:42.013Z,2.03
2017-07-11T09:19:10.093Z,2.30
2017-07-11T09:21:38.169Z,2.00
2017-07-11T09:24:06.247Z,1.90
2017-07-11T09:26:34.326Z,2.00
2017-07-11T09:29:02.428Z,3.00
2017-07-11T09:31:30.504Z,1.97
2017-07-11T09:33:58.580Z,2.00
2017-07-11T09:36:26.668Z,1.90
2017-07-11T09:38:54.744Z,2.03
2017-07-11T09:41:22.816Z,3.00
2017-07-11T09:43:50.897Z,2.37
2017-07-11T09:46:18.981Z,2.10
2017-07-11T09:48:47.068Z,2.83
2017-07-11T09:51:15.152Z,2.67
2017-07-11T09:53:43.253Z,2.40
2017-07-11T09:56:11.334Z,2.93
2017-07-11T09:58:39.418Z,2.30
2017-07-11T10:01:07.488Z,2.30
2017-07-11T10:03:35.576Z,2.70
2017-07-11T10:06:03.648Z,3.50
2017-07-11T10:08:31.731Z,2.67
2017-07-11T10:10:59.808Z,3.23
2017-07-11T10:13:27.896Z,2.90
2017-07-11T10:15:55.969Z,2.63
2017-07-11T10:18:24.060Z,2.87
2017-07-11T10:20:52.132Z,2.30
2017-07-11T10:23:20.210Z,2.63
2017-07-11T10:25:48.291Z,2.63
2017-07-11T10:28:16.372Z,2.77
2017-07-11T10:30:44.455Z,3.20
2017-07-11T10:33:12.532Z,3.47
2017-07-11T10:35:40.609Z,4.00
2017-07-11T10:38:08.679Z,2.80
2017-07-11T10:40:36.770Z,6.93
2017-07-11T10:43:04.866Z,3.13
2017-07-11T10:45:32.956Z,3.10
2017-07-11T10:48:01.023Z,2.80
2017-07-11T10:50:29.107Z,3.03
2017-07-11T10:52:57.189Z,4.20
2017-07-11T10:55:25.279Z,2.80
2017-07-11T10:57:53.373Z,3.17
2017-07-11T11:00:21.435Z,3.20
2017-07-11T11:02:49.531Z,2.97
2017-07-11T11:05:17.612Z,3.20
2017-07-11T11:07:45.686Z,3.30
2017-07-11T11:10:13.759Z,2.70
2017-07-11T11:12:41.835Z,2.77
2017-07-11T11:15:09.909Z,2.83
2017-07-11T11:17:37.991Z,3.40
2017-07-11T11:20:06.067Z,3.33
2017-07-11T11:22:34.156Z,3.00
2017-07-11T11:25:02.232Z,3.40
2017-07-11T11:27:30.340Z,4.70
2017-07-11T11:29:58.415Z,3.27
2017-07-11T11:32:26.491Z,2.90
2017-07-11T11:34:54.577Z,3.37
2017-07-11T11:37:22.644Z,3.43
2017-07-11T11:39:50.737Z,3.13
2017-07-11T11:42:18.803Z,4.43
2017-07-11T11:44:46.904Z,2.50
2017-07-11T11:47:14.983Z,4.07
2017-07-11T11:49:43.064Z,3.37
2017-07-11T11:52:11.139Z,2.97
2017-07-11T11:54:39.232Z,3.00
2017-07-11T11:57:07.312Z,3.33
2017-07-11T11:59:35.399Z,4.00
2017-07-11T12:02:03.495Z,3.10
2017-07-11T12:04:31.587Z,2.67
2017-07-11T12:06:59.664Z,2.53
2017-07-11T12:09:27.736Z,2.70
2017-07-11T12:11:55.815Z,2.67
2017-07-11T12:14:23.900Z,2.80
2017-07-11T12:16:51.991Z,2.93
2017-07-11T12:19:20.069Z,3.30
2017-07-11T12:21:48.148Z,2.83
2017-07-11T12:24:16.219Z,4.10
2017-07-11T12:26:44.319Z,12.97
2017-07-11T12:29:12.398Z,4.50
2017-07-11T12:31:40.491Z,3.47
2017-07-11T12:34:08.566Z,3.07
2017-07-11T12:36:36.650Z,3.27
2017-07-11T12:39:04.717Z,3.10
2017-07-11T12:41:32.808Z,3.37
2017-07-11T12:44:00.890Z,3.43
2017-07-11T12:46:28.971Z,2.93
2017-07-11T12:48:57.055Z,3.93
2017-07-11T12:51:25.128Z,3.27
2017-07-11T12:53:53.395Z,3.03
2017-07-11T12:56:21.473Z,3.00
2017-07-11T12:58:49.557Z,3.10
2017-07-11T13:01:17.700Z,2.87
2017-07-11T13:03:45.795Z,3.50
2017-07-11T13:06:13.870Z,5.03
2017-07-11T13:08:41.946Z,3.40
2017-07-11T13:11:10.024Z,3.57
2017-07-11T13:13:38.104Z,3.50
2017-07-11T13:16:06.184Z,2.70
2017-07-11T13:18:34.254Z,2.93
2017-07-11T13:21:02.338Z,3.00
2017-07-11T13:23:30.416Z,3.10
2017-07-11T13:25:58.506Z,3.43
2017-07-11T13:28:26.581Z,3.60
2017-07-11T13:30:54.662Z,3.20
2017-07-11T13:33:22.734Z,3.60
2017-07-11T13:35:50.820Z,3.57
2017-07-11T13:38:18.893Z,3.67
2017-07-11T13:40:46.974Z,6.33
2017-07-11T13:43:15.066Z,3.97
2017-07-11T13:45:43.155Z,3.57
2017-07-11T13:48:11.231Z,3.73
2017-07-11T13:50:39.317Z,3.67
2017-07-11T13:53:07.405Z,4.40
2017-07-11T13:55:35.498Z,3.80
2017-07-11T13:58:03.588Z,4.20
2017-07-11T14:00:36.020Z,3.50
2017-07-11T14:03:05.016Z,4.13
2017-07-11T14:05:33.095Z,4.03
2017-07-11T14:08:01.242Z,5.10
2017-07-11T14:10:29.312Z,4.30
2017-07-11T14:12:57.395Z,3.70
2017-07-11T14:15:25.711Z,4.43
2017-07-11T14:17:53.785Z,4.50
2017-07-11T14:20:21.865Z,4.20
2017-07-11T14:22:49.941Z,4.10
2017-07-11T14:25:18.045Z,4.40
2017-07-11T14:27:46.132Z,4.20
2017-07-11T14:30:14.223Z,4.13
2017-07-11T14:32:42.308Z,5.33
2017-07-11T14:35:10.391Z,4.80
2017-07-11T14:37:38.464Z,4.23
2017-07-11T14:40:06.540Z,4.97
2017-07-11T14:42:34.632Z,4.30
2017-07-11T14:45:02.706Z,4.80
2017-07-11T14:47:30.792Z,4.13
2017-07-11T14:49:58.888Z,3.53
2017-07-11T14:52:26.984Z,3.83
2017-07-11T14:54:55.058Z,4.50
2017-07-11T14:57:23.151Z,4.30
2017-07-11T14:59:51.232Z,5.03
2017-07-11T15:02:19.327Z,3.70
2017-07-11T15:04:47.391Z,5.33
2017-07-11T15:07:15.472Z,4.20
2017-07-11T15:09:43.561Z,6.93
2017-07-11T15:12:11.643Z,4.10
2017-07-11T15:14:39.724Z,5.70
2017-07-11T15:17:07.816Z,4.37
2017-07-11T15:19:35.892Z,4.27
2017-07-11T15:22:03.991Z,5.03
2017-07-11T15:24:32.085Z,6.30
2017-07-11T15:27:00.175Z,4.47
2017-07-11T15:29:28.245Z,4.00
2017-07-11T15:31:56.696Z,4.87
2017-07-11T15:34:24.778Z,4.20
2017-07-11T15:36:52.856Z,4.10
2017-07-11T15:39:20.936Z,3.70
2017-07-11T15:41:49.017Z,3.83
2017-07-11T15:44:17.099Z,3.83
2017-07-11T15:46:45.173Z,2.80
2017-07-11T15:49:13.252Z,2.50
2017-07-11T15:51:41.327Z,2.97
2017-07-11T15:54:09.431Z,3.20
2017-07-11T15:56:37.510Z,3.20
2017-07-11T15:59:05.588Z,2.60
2017-07-11T16:01:33.688Z,2.67
2017-07-11T16:04:01.823Z,5.20
2017-07-11T16:06:30.024Z,2.40
2017-07-11T16:08:58.287Z,2.70
2017-07-11T16:11:26.566Z,2.70
2017-07-11T16:13:54.643Z,4.53
2017-07-11T16:16:22.720Z,4.27
2017-07-11T16:18:50.792Z,2.37
2017-07-11T16:21:18.873Z,2.07
2017-07-11T16:23:46.949Z,2.80
2017-07-11T16:26:15.038Z,2.33
2017-07-11T16:28:43.124Z,2.80
2017-07-11T16:31:11.201Z,2.33
2017-07-11T16:33:39.294Z,2.57
2017-07-11T16:36:07.373Z,2.70
2017-07-11T16:38:35.460Z,3.50
2017-07-11T16:41:03.531Z,2.33
2017-07-11T16:43:31.644Z,2.47
2017-07-11T16:45:59.707Z,2.50
2017-07-11T16:48:27.793Z,3.10
2017-07-11T16:50:55.871Z,4.63
2017-07-11T16:53:23.959Z,2.90
2017-07-11T16:55:52.043Z,3.43
2017-07-11T16:58:20.133Z,3.10
2017-07-11T17:00:48.200Z,2.80
2017-07-11T17:03:16.289Z,3.47
2017-07-11T17:05:44.381Z,2.90
2017-07-11T17:08:12.461Z,2.77
2017-07-11T17:10:40.542Z,3.27
2017-07-11T17:13:08.625Z,2.87
2017-07-11T17:15:36.709Z,3.17
2017-07-11T17:18:04.788Z,3.07
2017-07-11T17:20:32.866Z,4.77
2017-07-11T17:23:00.945Z,4.00
2017-07-11T17:25:29.025Z,2.60
2017-07-11T17:27:57.109Z,2.87
2017-07-11T17:30:25.205Z,2.90
2017-07-11T17:32:53.282Z,3.63
2017-07-11T17:35:21.381Z,4.13
2017-07-11T17:37:49.455Z,2.37
2017-07-11T17:40:17.539Z,2.60
2017-07-11T17:42:45.615Z,3.33
2017-07-11T17:45:13.780Z,4.53
2017-07-11T17:47:41.856Z,2.70
2017-07-11T17:50:09.928Z,3.30
2017-07-11T17:52:38.016Z,3.30
2017-07-11T17:55:06.114Z,3.57
2017-07-11T17:57:34.200Z,2.93
2017-07-11T18:00:02.286Z,3.10
2017-07-11T18:02:30.371Z,3.73
2017-07-11T18:04:58.458Z,2.80
2017-07-11T18:07:26.542Z,3.57
2017-07-11T18:09:54.629Z,2.90
2017-07-11T18:12:22.809Z,4.10
2017-07-11T18:14:51.692Z,4.23
2017-07-11T18:17:19.969Z,3.50
2017-07-11T18:19:48.040Z,3.70
2017-07-11T18:22:16.251Z,3.27
2017-07-11T18:24:44.462Z,3.20
2017-07-11T18:27:12.544Z,3.77
2017-07-11T18:29:40.800Z,3.00
2017-07-11T18:32:08.969Z,2.87
2017-07-11T18:34:37.047Z,3.40
2017-07-11T18:37:05.528Z,3.47
2017-07-11T18:39:33.836Z,5.03
2017-07-11T18:42:02.156Z,2.90
2017-07-11T18:44:30.342Z,3.23
2017-07-11T18:46:58.492Z,3.10
2017-07-11T18:49:26.603Z,3.77
2017-07-11T18:51:54.731Z,3.70
2017-07-11T18:54:22.857Z,3.60
2017-07-11T18:56:51.032Z,3.20
2017-07-11T18:59:19.180Z,3.60
2017-07-11T19:01:47.322Z,3.83
2017-07-11T19:04:15.393Z,3.50
2017-07-11T19:06:43.507Z,3.37
2017-07-11T19:09:11.595Z,2.90
2017-07-11T19:11:39.675Z,3.47
2017-07-11T19:14:07.752Z,3.60
2017-07-11T19:16:35.850Z,3.33
2017-07-11T19:19:03.918Z,3.80
2017-07-11T19:21:31.996Z,3.90
2017-07-11T19:24:00.080Z,3.33
2017-07-11T19:26:28.190Z,3.53
2017-07-11T19:28:56.275Z,3.50
2017-07-11T19:31:24.355Z,4.30
2017-07-11T19:33:52.443Z,4.47
2017-07-11T19:36:20.521Z,5.17
2017-07-11T19:38:48.615Z,4.50
2017-07-11T19:41:16.700Z,4.23
2017-07-11T19:43:44.802Z,4.63
2017-07-11T19:46:12.894Z,4.10
2017-07-11T19:48:40.972Z,3.90
2017-07-11T19:51:09.047Z,3.77
2017-07-11T19:53:37.156Z,4.13
2017-07-11T19:56:05.228Z,3.53
2017-07-11T19:58:33.317Z,3.60
2017-07-11T20:01:01.521Z,4.20
2017-07-11T20:03:29.609Z,3.73
2017-07-11T20:05:57.695Z,3.70
2017-07-11T20:08:25.768Z,3.33
2017-07-11T20:10:53.852Z,3.60
2017-07-11T20:13:22.012Z,3.30
2017-07-11T20:15:50.088Z,3.50
2017-07-11T20:18:18.513Z,3.40
2017-07-11T20:20:46.586Z,4.23
2017-07-11T20:23:14.665Z,3.53
2017-07-11T20:25:42.744Z,3.77
2017-07-11T20:28:10.825Z,4.20
2017-07-11T20:30:38.917Z,3.63
2017-07-11T20:33:06.996Z,3.20
2017-07-11T20:35:35.072Z,3.80
2017-07-11T20:38:03.170Z,3.60
2017-07-11T20:40:31.263Z,3.63
2017-07-11T20:42:59.362Z,3.50
2017-07-11T20:45:27.440Z,4.10
2017-07-11T20:47:55.523Z,5.17
2017-07-11T20:50:23.610Z,4.80
2017-07-11T20:52:51.708Z,5.37
2017-07-11T20:55:19.789Z,5.50
2017-07-11T20:57:47.906Z,4.90
2017-07-11T21:00:15.981Z,5.23
2017-07-11T21:02:44.062Z,4.53
2017-07-11T21:05:12.396Z,4.43
2017-07-11T21:07:40.445Z,4.00
2017-07-11T21:10:08.534Z,6.80
2017-07-11T21:12:36.632Z,4.23
2017-07-11T21:15:04.704Z,4.50
2017-07-11T21:17:32.776Z,7.33
2017-07-11T21:20:00.870Z,8.20
2017-07-11T21:22:34.506Z,7.27
2017-07-11T21:25:08.144Z,6.57
2017-07-11T21:27:41.905Z,6.00
2017-07-11T21:30:15.533Z,4.30
2017-07-11T21:32:49.203Z,4.20
2017-07-11T21:35:23.031Z,5.20
2017-07-11T21:37:56.825Z,4.97
2017-07-11T21:40:24.931Z,3.97
2017-07-11T21:43:07.921Z,4.00
2017-07-11T21:45:50.911Z,4.80
2017-07-11T21:48:18.987Z,4.33
2017-07-11T21:51:02.892Z,3.33
2017-07-11T21:53:30.968Z,4.27
2017-07-11T21:55:59.054Z,3.93
2017-07-11T21:58:27.146Z,4.33
2017-07-11T22:00:55.395Z,4.43
2017-07-11T22:03:23.855Z,4.77
2017-07-11T22:05:51.964Z,4.97
2017-07-11T22:08:20.052Z,7.13
2017-07-11T22:10:48.168Z,4.70
2017-07-11T22:13:16.256Z,4.10
2017-07-11T22:15:44.350Z,4.40
2017-07-11T22:18:12.456Z,4.80
2017-07-11T22:20:40.533Z,4.17
2017-07-11T22:23:08.607Z,4.87
2017-07-11T22:25:36.699Z,4.43
2017-07-11T22:28:04.788Z,4.90
2017-07-11T22:30:32.875Z,4.63
2017-07-11T22:33:01.119Z,4.43
2017-07-11T22:35:29.204Z,4.40
2017-07-11T22:37:57.276Z,4.30
2017-07-11T22:40:25.367Z,5.17
2017-07-11T22:42:53.437Z,5.00
2017-07-11T22:45:21.519Z,5.20
2017-07-11T22:47:49.593Z,4.47
2017-07-11T22:50:17.685Z,5.67
2017-07-11T22:52:45.776Z,5.00
2017-07-11T22:55:13.854Z,5.30
2017-07-11T22:57:41.936Z,5.27
2017-07-11T23:00:10.302Z,5.13
2017-07-11T23:02:38.399Z,5.83
2017-07-11T23:05:06.480Z,6.27
2017-07-11T23:07:34.569Z,5.60
2017-07-11T23:10:02.651Z,5.40
2017-07-11T23:12:31.407Z,5.83
2017-07-11T23:14:59.481Z,6.93
2017-07-11T23:17:27.595Z,5.93
2017-07-11T23:19:55.677Z,5.93
2017-07-11T23:22:23.757Z,6.87
2017-07-11T23:24:51.833Z,5.27
2017-07-11T23:27:20.095Z,6.47
2017-07-11T23:29:48.377Z,5.40
2017-07-11T23:32:16.451Z,5.70
2017-07-11T23:34:44.556Z,5.57
2017-07-11T23:37:12.642Z,5.47
2017-07-11T23:39:40.707Z,5.87
2017-07-11T23:42:08.924Z,5.40
2017-07-11T23:44:37.012Z,5.50
2017-07-11T23:47:05.087Z,5.90
2017-07-11T23:49:33.162Z,5.60
2017-07-11T23:52:01.235Z,5.67
2017-07-11T23:54:29.324Z,5.97
2017-07-11T23:56:57.396Z,5.20
2017-07-11T23:59:25.491Z,5.37
